createdAt,value
2018-06-01T00:02:01.545Z,58.69
2018-06-01T00:04:27.512Z,58.72
2018-06-01T00:06:53.320Z,58.76
2018-06-01T00:09:19.121Z,58.67
2018-06-01T00:11:44.929Z,58.70
2018-06-01T00:14:10.733Z,58.68
2018-06-01T00:16:36.534Z,58.77
2018-06-01T00:19:02.342Z,58.72
2018-06-01T00:21:28.148Z,58.72
2018-06-01T00:23:53.952Z,58.76
2018-06-01T00:26:19.757Z,58.71
2018-06-01T00:28:45.608Z,58.66
2018-06-01T00:31:11.408Z,58.67
2018-06-01T00:33:37.212Z,58.67
2018-06-01T00:36:03.022Z,58.63
2018-06-01T00:38:28.825Z,58.65
2018-06-01T00:40:54.705Z,58.61
2018-06-01T00:43:20.518Z,58.68
2018-06-01T00:45:46.328Z,58.63
2018-06-01T00:48:12.164Z,58.61
2018-06-01T00:50:38.618Z,58.62
2018-06-01T00:53:04.469Z,58.68
2018-06-01T00:55:30.316Z,58.77
2018-06-01T00:57:56.160Z,58.72
2018-06-01T01:00:21.972Z,58.71
2018-06-01T01:02:47.869Z,58.74
2018-06-01T01:05:13.689Z,58.79
2018-06-01T01:07:39.647Z,58.68
2018-06-01T01:10:05.453Z,58.72
2018-06-01T01:12:31.260Z,58.73
2018-06-01T01:14:57.064Z,58.67
2018-06-01T01:17:22.872Z,58.68
2018-06-01T01:19:49.644Z,58.72
2018-06-01T01:22:15.460Z,58.75
2018-06-01T01:24:41.304Z,58.77
2018-06-01T01:27:07.112Z,58.82
2018-06-01T01:29:32.953Z,58.78
2018-06-01T01:31:58.795Z,58.88
2018-06-01T01:34:24.632Z,58.90
2018-06-01T01:36:51.237Z,58.83
2018-06-01T01:39:17.081Z,58.82
2018-06-01T01:41:42.879Z,58.81
2018-06-01T01:44:08.684Z,58.73
2018-06-01T01:46:34.493Z,58.77
2018-06-01T01:49:00.292Z,58.78
2018-06-01T01:51:27.079Z,58.76
2018-06-01T01:53:53.046Z,58.88
2018-06-01T01:56:19.812Z,58.85
2018-06-01T01:58:45.613Z,58.95
2018-06-01T02:01:11.420Z,58.77
2018-06-01T02:03:38.060Z,58.77
2018-06-01T02:06:04.860Z,58.84
2018-06-01T02:08:31.653Z,58.88
2018-06-01T02:10:57.548Z,58.96
2018-06-01T02:13:23.348Z,58.93
2018-06-01T02:15:49.953Z,58.92
2018-06-01T02:18:15.796Z,58.91
2018-06-01T02:20:41.608Z,58.94
2018-06-01T02:23:07.432Z,58.98
2018-06-01T02:25:34.104Z,58.96
2018-06-01T02:27:59.905Z,58.91
2018-06-01T02:30:25.712Z,58.90
2018-06-01T02:32:51.584Z,58.87
2018-06-01T02:35:17.384Z,58.96
2018-06-01T02:37:43.188Z,58.97
2018-06-01T02:40:09.035Z,58.99
2018-06-01T02:42:34.860Z,58.88
2018-06-01T02:45:00.697Z,58.79
2018-06-01T02:47:26.540Z,58.83
2018-06-01T02:49:52.352Z,58.84
2018-06-01T02:52:19.116Z,58.93
2018-06-01T02:54:45.923Z,59.05
2018-06-01T02:57:12.713Z,58.94
2018-06-01T02:59:39.428Z,59.00
2018-06-01T03:02:05.236Z,58.97
2018-06-01T03:04:31.036Z,58.92
2018-06-01T03:07:16.876Z,59.00
2018-06-01T03:09:43.604Z,59.62
2018-06-01T03:12:09.454Z,59.52
2018-06-01T03:14:35.253Z,59.10
2018-06-01T03:17:01.095Z,59.13
2018-06-01T03:19:27.859Z,58.92
2018-06-01T03:21:53.656Z,59.09
2018-06-01T03:24:20.505Z,59.02
2018-06-01T03:26:47.138Z,59.02
2018-06-01T03:29:12.997Z,59.04
2018-06-01T03:31:38.803Z,59.03
2018-06-01T03:34:04.613Z,59.06
2018-06-01T03:36:30.416Z,59.01
2018-06-01T03:38:56.212Z,58.89
2018-06-01T03:41:22.013Z,59.08
2018-06-01T03:43:47.814Z,59.02
2018-06-01T03:46:13.671Z,59.01
2018-06-01T03:48:39.473Z,59.02
2018-06-01T03:51:05.299Z,59.01
2018-06-01T03:53:31.097Z,59.03
2018-06-01T03:55:56.935Z,59.08
2018-06-01T03:58:22.736Z,59.02
2018-06-01T04:00:49.495Z,59.00
2018-06-01T04:03:15.304Z,59.10
2018-06-01T04:05:43.333Z,59.13
2018-06-01T04:08:09.133Z,59.07
2018-06-01T04:10:34.927Z,59.07
2018-06-01T04:13:00.727Z,59.13
2018-06-01T04:15:26.532Z,59.12
2018-06-01T04:17:52.372Z,59.20
2018-06-01T04:20:18.184Z,59.05
2018-06-01T04:22:44.918Z,59.11
2018-06-01T04:25:11.631Z,59.10
2018-06-01T04:27:37.447Z,59.06
2018-06-01T04:30:04.220Z,59.10
2018-06-01T04:32:30.219Z,59.02
2018-06-01T04:34:56.829Z,59.13
2018-06-01T04:37:22.697Z,59.02
2018-06-01T04:39:49.329Z,59.08
2018-06-01T04:42:15.135Z,59.21
2018-06-01T04:44:40.936Z,59.12
2018-06-01T04:47:07.705Z,59.21
2018-06-01T04:49:33.514Z,59.15
2018-06-01T04:51:59.320Z,59.19
2018-06-01T04:54:26.069Z,59.08
2018-06-01T04:56:52.869Z,59.09
2018-06-01T04:59:18.712Z,59.13
2018-06-01T05:01:44.563Z,59.08
2018-06-01T05:04:11.281Z,59.05
2018-06-01T05:06:37.081Z,59.04
2018-06-01T05:09:03.795Z,59.14
2018-06-01T05:11:30.528Z,59.14
2018-06-01T05:13:56.371Z,59.25
2018-06-01T05:16:22.957Z,59.04
2018-06-01T05:18:49.709Z,59.10
2018-06-01T05:21:16.496Z,59.16
2018-06-01T05:23:42.353Z,59.25
2018-06-01T05:26:08.169Z,59.26
2018-06-01T05:28:33.977Z,59.17
2018-06-01T05:30:59.780Z,59.17
2018-06-01T05:33:26.562Z,59.19
2018-06-01T05:35:52.356Z,59.27
2018-06-01T05:38:19.034Z,59.16
2018-06-01T05:40:45.773Z,59.27
2018-06-01T05:43:11.568Z,59.30
2018-06-01T05:45:37.367Z,59.23
2018-06-01T05:48:04.123Z,59.35
2018-06-01T05:50:30.900Z,59.21
2018-06-01T05:52:56.780Z,59.17
2018-06-01T05:55:24.095Z,59.21
2018-06-01T05:57:49.941Z,59.19
2018-06-01T06:00:15.737Z,59.25
2018-06-01T06:02:41.569Z,59.27
2018-06-01T06:05:08.352Z,59.27
2018-06-01T06:07:35.153Z,59.21
2018-06-01T06:10:01.942Z,59.34
2018-06-01T06:12:28.772Z,59.26
2018-06-01T06:14:54.625Z,59.39
2018-06-01T06:17:21.257Z,59.61
2018-06-01T06:19:48.045Z,59.25
2018-06-01T06:22:14.812Z,59.35
2018-06-01T06:24:41.420Z,59.52
2018-06-01T06:27:07.216Z,59.30
2018-06-01T06:29:33.036Z,59.37
2018-06-01T06:31:59.820Z,59.45
2018-06-01T06:34:25.656Z,59.40
2018-06-01T06:36:52.394Z,59.34
2018-06-01T06:39:18.201Z,59.49
2018-06-01T06:41:44.009Z,59.24
2018-06-01T06:44:09.812Z,59.44
2018-06-01T06:46:35.658Z,59.26
2018-06-01T06:49:01.465Z,59.41
2018-06-01T06:51:27.269Z,59.41
2018-06-01T06:53:53.069Z,59.33
2018-06-01T06:56:19.807Z,59.32
2018-06-01T06:58:45.605Z,59.41
2018-06-01T07:01:12.272Z,59.50
2018-06-01T07:03:38.081Z,59.46
2018-06-01T07:06:04.706Z,59.52
2018-06-01T07:08:30.512Z,59.50
2018-06-01T07:10:56.321Z,59.45
2018-06-01T07:13:22.121Z,59.50
2018-06-01T07:15:47.928Z,59.54
2018-06-01T07:18:13.765Z,59.51
2018-06-01T07:20:40.225Z,59.44
2018-06-01T07:23:06.925Z,59.52
2018-06-01T07:25:32.783Z,59.64
2018-06-01T07:27:58.585Z,59.63
2018-06-01T07:30:25.332Z,59.54
2018-06-01T07:32:51.137Z,59.57
2018-06-01T07:35:16.983Z,59.55
2018-06-01T07:37:42.843Z,59.55
2018-06-01T07:40:08.655Z,59.49
2018-06-01T07:42:34.483Z,59.52
2018-06-01T07:45:00.397Z,59.54
2018-06-01T07:47:26.200Z,59.50
2018-06-01T07:49:53.016Z,59.52
2018-06-01T07:52:18.816Z,59.62
2018-06-01T07:54:45.545Z,59.60
2018-06-01T07:57:11.343Z,59.61
2018-06-01T07:59:38.035Z,59.58
2018-06-01T08:02:04.875Z,59.68
2018-06-01T08:04:30.817Z,59.65
2018-06-01T08:06:56.677Z,59.71
2018-06-01T08:09:23.286Z,59.74
2018-06-01T08:11:49.365Z,59.68
2018-06-01T08:14:16.147Z,60.03
2018-06-01T08:16:47.701Z,59.67
2018-06-01T08:19:14.320Z,59.76
2018-06-01T08:21:41.134Z,59.71
2018-06-01T08:24:07.926Z,59.61
2018-06-01T08:26:34.715Z,59.52
2018-06-01T08:29:00.548Z,59.34
2018-06-01T08:31:26.348Z,59.32
2018-06-01T08:33:52.225Z,59.55
2018-06-01T08:36:18.024Z,59.47
2018-06-01T08:38:44.643Z,59.49
2018-06-01T08:41:10.450Z,59.49
2018-06-01T08:43:37.081Z,59.48
2018-06-01T08:46:03.889Z,59.57
2018-06-01T08:48:29.840Z,59.51
2018-06-01T08:50:56.461Z,59.59
2018-06-01T08:53:22.303Z,59.55
2018-06-01T08:55:48.963Z,59.65
2018-06-01T08:58:14.808Z,59.56
2018-06-01T09:00:41.414Z,59.52
2018-06-01T09:03:07.325Z,59.48
2018-06-01T09:05:33.942Z,59.58
2018-06-01T09:07:59.780Z,59.44
2018-06-01T09:10:26.470Z,59.44
2018-06-01T09:12:52.313Z,59.55
2018-06-01T09:15:18.956Z,59.46
2018-06-01T09:17:45.756Z,59.57
2018-06-01T09:20:12.508Z,59.74
2018-06-01T09:22:38.303Z,59.64
2018-06-01T09:25:05.052Z,59.69
2018-06-01T09:27:30.848Z,59.63
2018-06-01T09:29:56.688Z,59.66
2018-06-01T09:32:22.484Z,59.71
2018-06-01T09:34:49.435Z,59.78
2018-06-01T09:37:15.238Z,59.67
2018-06-01T09:39:41.905Z,59.70
2018-06-01T09:42:07.704Z,59.56
2018-06-01T09:44:34.522Z,59.73
2018-06-01T09:47:00.324Z,59.74
2018-06-01T09:49:27.129Z,59.80
2018-06-01T09:51:53.996Z,59.80
2018-06-01T09:54:20.695Z,59.81
2018-06-01T09:56:47.312Z,59.94
2018-06-01T09:59:13.117Z,59.82
2018-06-01T10:01:39.812Z,59.73
2018-06-01T10:04:06.567Z,59.67
2018-06-01T10:06:33.408Z,59.71
2018-06-01T10:08:59.203Z,59.65
2018-06-01T10:11:26.560Z,59.75
2018-06-01T10:13:53.215Z,59.80
2018-06-01T10:16:19.992Z,59.79
2018-06-01T10:18:45.832Z,59.72
2018-06-01T10:21:11.639Z,59.77
2018-06-01T10:23:37.440Z,59.73
2018-06-01T10:26:03.231Z,59.78
2018-06-01T10:28:29.976Z,59.83
2018-06-01T10:30:55.771Z,59.84
2018-06-01T10:33:22.588Z,59.93
2018-06-01T10:35:48.388Z,59.89
2018-06-01T10:38:14.184Z,59.71
2018-06-01T10:40:40.040Z,59.73
2018-06-01T10:43:05.844Z,59.72
2018-06-01T10:45:31.644Z,59.67
2018-06-01T10:47:57.489Z,59.80
2018-06-01T10:50:23.309Z,59.70
2018-06-01T10:52:49.109Z,59.71
2018-06-01T10:55:15.907Z,59.63
2018-06-01T10:57:42.610Z,59.97
2018-06-01T11:00:08.409Z,59.94
2018-06-01T11:02:34.212Z,59.50
2018-06-01T11:05:00.935Z,59.28
2018-06-01T11:07:27.781Z,59.29
2018-06-01T11:09:53.583Z,59.47
2018-06-01T11:12:19.380Z,59.30
2018-06-01T11:14:46.237Z,59.33
2018-06-01T11:17:12.153Z,59.41
2018-06-01T11:19:37.964Z,59.48
2018-06-01T11:22:03.793Z,59.56
2018-06-01T11:24:29.596Z,60.18
2018-06-01T11:26:55.441Z,59.68
2018-06-01T11:29:21.244Z,60.40
2018-06-01T11:31:47.945Z,59.89
2018-06-01T11:34:13.760Z,60.41
2018-06-01T11:36:39.562Z,60.22
2018-06-01T11:39:05.384Z,60.00
2018-06-01T11:41:31.184Z,59.76
2018-06-01T11:43:56.993Z,59.57
2018-06-01T11:46:22.844Z,59.59
2018-06-01T11:48:48.640Z,59.95
2018-06-01T11:51:14.455Z,60.17
2018-06-01T11:53:40.265Z,61.27
2018-06-01T11:56:06.969Z,60.95
2018-06-01T11:58:32.811Z,60.70
2018-06-01T12:00:59.439Z,60.03
2018-06-01T12:03:25.280Z,60.35
2018-06-01T12:05:51.076Z,59.72
2018-06-01T12:08:17.928Z,59.75
2018-06-01T12:10:44.629Z,59.78
2018-06-01T12:13:11.508Z,59.65
2018-06-01T12:15:37.311Z,59.67
2018-06-01T12:18:05.010Z,59.46
2018-06-01T12:20:31.794Z,59.68
2018-06-01T12:22:57.596Z,59.57
2018-06-01T12:25:24.439Z,59.69
2018-06-01T12:27:50.245Z,59.59
2018-06-01T12:30:16.088Z,59.60
2018-06-01T12:32:42.908Z,59.87
2018-06-01T12:35:08.780Z,59.63
2018-06-01T12:37:35.545Z,59.62
2018-06-01T12:40:01.431Z,59.80
2018-06-01T12:42:28.229Z,59.61
2018-06-01T12:44:54.064Z,59.69
2018-06-01T12:47:20.729Z,59.69
2018-06-01T12:49:46.650Z,59.79
2018-06-01T12:52:13.441Z,59.88
2018-06-01T12:54:39.282Z,59.94
2018-06-01T12:57:05.095Z,59.96
2018-06-01T12:59:30.949Z,59.78
2018-06-01T13:01:57.532Z,59.91
2018-06-01T13:04:23.340Z,59.79
2018-06-01T13:06:50.063Z,59.78
2018-06-01T13:09:15.874Z,59.73
2018-06-01T13:11:42.620Z,59.80
2018-06-01T13:14:08.432Z,59.60
2018-06-01T13:16:35.057Z,59.62
2018-06-01T13:19:01.828Z,59.69
2018-06-01T13:21:28.561Z,60.19
2018-06-01T13:23:55.397Z,59.90
2018-06-01T13:26:22.020Z,59.80
2018-06-01T13:28:48.820Z,59.93
2018-06-01T13:31:15.631Z,59.98
2018-06-01T13:33:42.328Z,60.14
2018-06-01T13:36:08.948Z,59.92
2018-06-01T13:38:35.764Z,59.88
2018-06-01T13:41:01.572Z,59.86
2018-06-01T13:43:28.336Z,59.90
2018-06-01T13:45:54.132Z,59.91
2018-06-01T13:48:20.896Z,59.88
2018-06-01T13:50:47.636Z,59.79
2018-06-01T13:53:14.442Z,60.04
2018-06-01T13:55:43.280Z,59.98
2018-06-01T13:58:10.010Z,59.97
2018-06-01T14:00:35.826Z,60.00
2018-06-01T14:03:02.508Z,59.99
2018-06-01T14:05:29.360Z,60.01
2018-06-01T14:07:56.324Z,59.93
2018-06-01T14:10:22.156Z,59.98
2018-06-01T14:12:48.514Z,59.96
2018-06-01T14:15:15.248Z,60.06
2018-06-01T14:17:41.991Z,59.91
2018-06-01T14:20:07.790Z,59.83
2018-06-01T14:22:33.588Z,59.92
2018-06-01T14:25:00.316Z,59.81
2018-06-01T14:27:26.125Z,59.90
2018-06-01T14:29:51.956Z,60.01
2018-06-01T14:32:18.816Z,59.87
2018-06-01T14:34:44.655Z,59.86
2018-06-01T14:37:10.501Z,59.84
2018-06-01T14:39:37.236Z,59.89
2018-06-01T14:42:04.060Z,59.84
2018-06-01T14:44:30.577Z,59.91
2018-06-01T14:46:57.213Z,59.90
2018-06-01T14:49:23.792Z,59.90
2018-06-01T14:51:50.550Z,59.92
2018-06-01T14:54:16.440Z,59.93
2018-06-01T14:56:42.244Z,59.98
2018-06-01T14:59:09.040Z,59.95
2018-06-01T15:01:35.739Z,60.01
2018-06-01T15:04:01.594Z,60.01
2018-06-01T15:06:27.396Z,60.01
2018-06-01T15:08:53.201Z,60.03
2018-06-01T15:11:19.801Z,59.80
2018-06-01T15:13:45.756Z,59.86
2018-06-01T15:16:12.520Z,59.99
2018-06-01T15:18:38.338Z,61.48
2018-06-01T15:21:04.140Z,60.84
2018-06-01T15:23:29.953Z,60.66
2018-06-01T15:25:55.760Z,60.71
2018-06-01T15:28:21.558Z,60.04
2018-06-01T15:30:47.357Z,60.35
2018-06-01T15:33:13.241Z,60.17
2018-06-01T15:35:40.367Z,60.01
2018-06-01T15:38:06.170Z,60.37
2018-06-01T15:40:31.981Z,60.10
2018-06-01T15:42:58.768Z,60.11
2018-06-01T15:45:24.616Z,60.02
2018-06-01T15:47:50.429Z,60.02
2018-06-01T15:50:16.227Z,59.92
2018-06-01T15:52:42.029Z,60.37
2018-06-01T15:55:07.828Z,60.18
2018-06-01T15:57:33.631Z,59.82
2018-06-01T15:59:59.436Z,59.89
2018-06-01T16:02:25.326Z,59.84
2018-06-01T16:04:51.170Z,59.87
2018-06-01T16:07:16.979Z,59.92
2018-06-01T16:09:42.794Z,59.94
2018-06-01T16:12:08.608Z,60.06
2018-06-01T16:14:34.404Z,59.99
2018-06-01T16:17:00.205Z,60.15
2018-06-01T16:19:26.004Z,59.97
2018-06-01T16:21:51.815Z,59.87
2018-06-01T16:24:17.618Z,60.04
2018-06-01T16:26:43.492Z,59.92
2018-06-01T16:29:10.197Z,59.88
2018-06-01T16:31:36.002Z,59.99
2018-06-01T16:34:02.808Z,60.01
2018-06-01T16:36:28.672Z,59.93
2018-06-01T16:38:55.426Z,59.96
2018-06-01T16:41:21.232Z,59.97
2018-06-01T16:43:48.056Z,60.11
2018-06-01T16:46:13.902Z,60.02
2018-06-01T16:48:40.769Z,59.99
2018-06-01T16:51:06.581Z,59.97
2018-06-01T16:53:33.379Z,60.08
2018-06-01T16:55:59.195Z,59.96
2018-06-01T16:58:25.002Z,60.00
2018-06-01T17:00:51.762Z,59.97
2018-06-01T17:03:17.564Z,59.98
2018-06-01T17:05:43.366Z,59.93
2018-06-01T17:08:09.171Z,59.91
2018-06-01T17:10:35.977Z,60.00
2018-06-01T17:13:01.813Z,59.91
2018-06-01T17:15:27.621Z,60.00
2018-06-01T17:17:53.526Z,59.90
2018-06-01T17:20:20.200Z,59.93
2018-06-01T17:22:47.026Z,59.80
2018-06-01T17:25:12.931Z,59.98
2018-06-01T17:27:38.770Z,59.82
2018-06-01T17:30:04.671Z,59.86
2018-06-01T17:32:30.473Z,59.83
2018-06-01T17:34:56.277Z,59.83
2018-06-01T17:37:22.130Z,59.78
2018-06-01T17:39:48.852Z,59.81
2018-06-01T17:42:15.564Z,59.86
2018-06-01T17:44:41.379Z,59.84
2018-06-01T17:47:07.322Z,60.03
2018-06-01T17:49:33.130Z,59.96
2018-06-01T17:51:59.901Z,59.85
2018-06-01T17:54:25.712Z,59.94
2018-06-01T17:56:51.521Z,60.03
2018-06-01T17:59:18.148Z,59.94
2018-06-01T18:01:43.968Z,59.89
2018-06-01T18:04:10.689Z,60.01
2018-06-01T18:06:36.492Z,59.93
2018-06-01T18:09:02.330Z,59.93
2018-06-01T18:11:28.174Z,59.88
2018-06-01T18:13:54.880Z,59.86
2018-06-01T18:16:20.677Z,59.90
2018-06-01T18:18:47.390Z,59.73
2018-06-01T18:21:13.203Z,60.24
2018-06-01T18:23:39.057Z,59.51
2018-06-01T18:26:04.860Z,59.24
2018-06-01T18:28:31.554Z,59.58
2018-06-01T18:30:57.353Z,59.96
2018-06-01T18:33:24.118Z,60.31
2018-06-01T18:35:49.999Z,60.69
2018-06-01T18:38:15.800Z,60.83
2018-06-01T18:40:42.465Z,60.92
2018-06-01T18:43:09.209Z,61.04
2018-06-01T18:45:35.021Z,61.05
2018-06-01T18:48:00.833Z,61.24
2018-06-01T18:50:27.579Z,60.72
2018-06-01T18:52:53.384Z,60.58
2018-06-01T18:55:19.291Z,60.15
2018-06-01T18:57:45.110Z,60.69
2018-06-01T19:00:10.917Z,60.14
2018-06-01T19:02:37.745Z,60.14
2018-06-01T19:05:04.513Z,60.56
2018-06-01T19:07:31.251Z,60.04
2018-06-01T19:09:57.069Z,60.42
2018-06-01T19:12:22.881Z,60.04
2018-06-01T19:14:48.693Z,60.04
2018-06-01T19:17:14.509Z,60.28
2018-06-01T19:19:40.340Z,60.20
2018-06-01T19:22:06.310Z,60.07
2018-06-01T19:24:32.335Z,59.92
2018-06-01T19:26:58.153Z,60.00
2018-06-01T19:29:24.830Z,60.14
2018-06-01T19:31:50.685Z,60.08
2018-06-01T19:34:16.501Z,59.85
2018-06-01T19:36:42.437Z,60.07
2018-06-01T19:39:08.253Z,59.87
2018-06-01T19:41:34.301Z,59.83
2018-06-01T19:44:00.189Z,59.77
2018-06-01T19:46:26.037Z,59.84
2018-06-01T19:48:52.172Z,59.90
2018-06-01T19:51:17.982Z,59.76
2018-06-01T19:53:43.912Z,60.01
2018-06-01T19:56:09.726Z,59.82
2018-06-01T19:58:35.633Z,59.67
2018-06-01T20:01:02.006Z,59.81
2018-06-01T20:03:27.908Z,59.93
2018-06-01T20:05:53.745Z,60.06
2018-06-01T20:08:20.571Z,59.70
2018-06-01T20:10:46.802Z,59.85
2018-06-01T20:13:12.679Z,59.82
2018-06-01T20:15:38.646Z,59.68
2018-06-01T20:18:04.469Z,59.75
2018-06-01T20:20:30.286Z,59.54
2018-06-01T20:22:56.085Z,59.56
2018-06-01T20:25:22.349Z,59.61
2018-06-01T20:27:50.079Z,59.54
2018-06-01T20:30:23.680Z,59.70
2018-06-01T20:32:50.929Z,59.76
2018-06-01T20:35:17.503Z,59.69
2018-06-01T20:37:43.729Z,59.58
2018-06-01T20:40:15.213Z,59.63
2018-06-01T20:42:41.821Z,59.48
2018-06-01T20:45:08.372Z,59.53
2018-06-01T20:47:34.946Z,59.40
2018-06-01T20:50:00.800Z,59.41
2018-06-01T20:52:26.613Z,59.40
2018-06-01T20:54:53.363Z,59.35
2018-06-01T20:57:20.437Z,59.37
2018-06-01T20:59:47.160Z,59.52
2018-06-01T21:02:12.978Z,59.33
2018-06-01T21:04:38.785Z,59.37
2018-06-01T21:07:04.628Z,59.27
2018-06-01T21:09:30.548Z,59.46
2018-06-01T21:11:57.253Z,59.37
2018-06-01T21:14:23.992Z,59.22
2018-06-01T21:16:49.833Z,59.41
2018-06-01T21:19:15.650Z,59.32
2018-06-01T21:21:41.496Z,59.31
2018-06-01T21:24:07.305Z,59.36
2018-06-01T21:26:33.106Z,59.32
2018-06-01T21:28:59.084Z,59.28
2018-06-01T21:31:24.921Z,59.39
2018-06-01T21:33:51.644Z,59.29
2018-06-01T21:36:17.528Z,59.34
2018-06-01T21:38:43.333Z,59.32
2018-06-01T21:41:09.945Z,59.33
2018-06-01T21:43:35.750Z,59.29
2018-06-01T21:46:01.558Z,59.30
2018-06-01T21:48:27.365Z,59.20
2018-06-01T21:50:54.133Z,59.22
2018-06-01T21:53:19.976Z,59.46
2018-06-01T21:55:45.783Z,59.33
2018-06-01T21:58:12.549Z,59.32
2018-06-01T22:00:38.356Z,59.36
2018-06-01T22:03:04.208Z,59.52
2018-06-01T22:05:30.009Z,59.36
2018-06-01T22:07:55.816Z,59.38
2018-06-01T22:10:21.664Z,59.51
2018-06-01T22:12:54.447Z,59.41
2018-06-01T22:15:21.214Z,59.52
2018-06-01T22:17:47.025Z,59.38
2018-06-01T22:20:13.865Z,59.26
2018-06-01T22:22:39.675Z,59.32
2018-06-01T22:25:05.480Z,59.42
2018-06-01T22:27:32.257Z,59.38
2018-06-01T22:29:58.073Z,59.39
2018-06-01T22:32:23.883Z,59.38
2018-06-01T22:34:50.664Z,59.30
2018-06-01T22:37:16.542Z,59.48
2018-06-01T22:39:42.341Z,59.41
2018-06-01T22:42:08.178Z,59.38
2018-06-01T22:44:33.981Z,59.34
2018-06-01T22:47:00.584Z,59.38
2018-06-01T22:49:27.408Z,59.42
2018-06-01T22:51:54.192Z,59.32
2018-06-01T22:54:20.968Z,59.60
2018-06-01T22:56:46.766Z,59.34
2018-06-01T22:59:12.560Z,59.45
2018-06-01T23:01:38.436Z,59.49
2018-06-01T23:04:04.238Z,59.27
2018-06-01T23:06:30.065Z,59.35
2018-06-01T23:08:56.920Z,59.43
2018-06-01T23:11:22.723Z,59.28
2018-06-01T23:13:48.532Z,59.65
2018-06-01T23:16:14.340Z,59.50
2018-06-01T23:18:40.146Z,59.43
2018-06-01T23:21:06.008Z,59.44
2018-06-01T23:23:32.812Z,59.43
2018-06-01T23:25:58.605Z,59.41
2018-06-01T23:28:24.408Z,59.48
2018-06-01T23:30:51.085Z,59.83
2018-06-01T23:33:16.885Z,59.63
2018-06-01T23:35:44.673Z,59.59
2018-06-01T23:38:10.516Z,59.71
2018-06-01T23:40:36.315Z,59.57
2018-06-01T23:43:02.121Z,59.53
2018-06-01T23:45:27.928Z,59.45
2018-06-01T23:47:53.732Z,59.67
2018-06-01T23:50:19.532Z,59.58
2018-06-01T23:52:45.360Z,59.70
2018-06-01T23:55:11.169Z,59.44
2018-06-01T23:57:36.976Z,59.64
